sensor_id;sensor_type;location;lat;lon;timestamp;P1;durP1;ratioP1;P2;durP2;ratioP2
23117;SDS011;11728;50.624;6.014;2022-08-07T00:04:18;5.13;;;1.30;;
23117;SDS011;11728;50.624;6.014;2022-08-07T00:09:19;6.85;;;1.15;;
23117;SDS011;11728;50.624;6.014;2022-08-07T00:14:20;5.18;;;1.50;;
23117;SDS011;11728;50.624;6.014;2022-08-07T00:19:21;6.88;;;1.30;;
23117;SDS011;11728;50.624;6.014;2022-08-07T00:24:21;4.93;;;1.30;;
23117;SDS011;11728;50.624;6.014;2022-08-07T00:29:22;6.75;;;1.35;;
23117;SDS011;11728;50.624;6.014;2022-08-07T00:34:25;2.80;;;1.10;;
23117;SDS011;11728;50.624;6.014;2022-08-07T00:39:26;6.63;;;1.25;;
23117;SDS011;11728;50.624;6.014;2022-08-07T00:44:27;3.80;;;1.13;;
23117;SDS011;11728;50.624;6.014;2022-08-07T00:49:27;2.72;;;1.02;;
23117;SDS011;11728;50.624;6.014;2022-08-07T00:54:28;4.88;;;1.35;;
23117;SDS011;11728;50.624;6.014;2022-08-07T00:59:29;4.53;;;1.40;;
23117;SDS011;11728;50.624;6.014;2022-08-07T01:04:31;4.53;;;1.55;;
23117;SDS011;11728;50.624;6.014;2022-08-07T01:09:32;2.60;;;1.20;;
23117;SDS011;11728;50.624;6.014;2022-08-07T01:14:33;3.13;;;1.20;;
23117;SDS011;11728;50.624;6.014;2022-08-07T01:19:33;3.47;;;1.17;;
23117;SDS011;11728;50.624;6.014;2022-08-07T01:24:35;6.05;;;1.48;;
23117;SDS011;11728;50.624;6.014;2022-08-07T01:29:36;2.55;;;1.30;;
23117;SDS011;11728;50.624;6.014;2022-08-07T01:34:38;3.35;;;1.40;;
23117;SDS011;11728;50.624;6.014;2022-08-07T01:39:43;5.10;;;1.38;;
23117;SDS011;11728;50.624;6.014;2022-08-07T01:44:50;2.78;;;1.20;;
23117;SDS011;11728;50.624;6.014;2022-08-07T01:49:51;2.28;;;1.23;;
23117;SDS011;11728;50.624;6.014;2022-08-07T01:54:52;4.32;;;1.35;;
23117;SDS011;11728;50.624;6.014;2022-08-07T02:00:00;6.85;;;1.23;;
23117;SDS011;11728;50.624;6.014;2022-08-07T02:05:13;5.00;;;1.38;;
23117;SDS011;11728;50.624;6.014;2022-08-07T02:10:23;2.40;;;1.10;;
23117;SDS011;11728;50.624;6.014;2022-08-07T02:15:26;4.10;;;1.48;;
23117;SDS011;11728;50.624;6.014;2022-08-07T02:20:29;2.60;;;1.10;;
23117;SDS011;11728;50.624;6.014;2022-08-07T02:25:33;3.00;;;1.25;;
23117;SDS011;11728;50.624;6.014;2022-08-07T02:30:37;5.65;;;1.40;;
23117;SDS011;11728;50.624;6.014;2022-08-07T02:35:39;2.70;;;1.27;;
23117;SDS011;11728;50.624;6.014;2022-08-07T02:40:42;3.03;;;1.20;;
23117;SDS011;11728;50.624;6.014;2022-08-07T02:45:44;5.22;;;1.33;;
23117;SDS011;11728;50.624;6.014;2022-08-07T02:50:47;2.55;;;1.30;;
23117;SDS011;11728;50.624;6.014;2022-08-07T02:55:50;1.88;;;0.95;;
23117;SDS011;11728;50.624;6.014;2022-08-07T03:00:55;2.58;;;1.30;;
23117;SDS011;11728;50.624;6.014;2022-08-07T03:05:57;2.80;;;1.20;;
23117;SDS011;11728;50.624;6.014;2022-08-07T03:11:00;3.45;;;1.25;;
23117;SDS011;11728;50.624;6.014;2022-08-07T03:16:14;2.53;;;1.05;;
23117;SDS011;11728;50.624;6.014;2022-08-07T03:21:15;4.40;;;1.27;;
23117;SDS011;11728;50.624;6.014;2022-08-07T03:26:17;3.00;;;1.35;;
23117;SDS011;11728;50.624;6.014;2022-08-07T03:31:20;2.67;;;1.10;;
23117;SDS011;11728;50.624;6.014;2022-08-07T03:36:26;4.13;;;1.25;;
23117;SDS011;11728;50.624;6.014;2022-08-07T03:41:29;2.10;;;1.00;;
23117;SDS011;11728;50.624;6.014;2022-08-07T03:46:32;3.83;;;1.17;;
23117;SDS011;11728;50.624;6.014;2022-08-07T03:51:33;2.97;;;1.50;;
23117;SDS011;11728;50.624;6.014;2022-08-07T03:56:35;3.50;;;1.50;;
23117;SDS011;11728;50.624;6.014;2022-08-07T04:01:40;2.80;;;1.48;;
23117;SDS011;11728;50.624;6.014;2022-08-07T04:06:42;3.90;;;1.67;;
23117;SDS011;11728;50.624;6.014;2022-08-07T04:11:49;2.85;;;1.00;;
23117;SDS011;11728;50.624;6.014;2022-08-07T04:16:51;3.40;;;1.10;;
23117;SDS011;11728;50.624;6.014;2022-08-07T04:21:52;2.90;;;1.20;;
23117;SDS011;11728;50.624;6.014;2022-08-07T04:26:54;1.67;;;1.00;;
23117;SDS011;11728;50.624;6.014;2022-08-07T04:31:55;2.45;;;1.02;;
23117;SDS011;11728;50.624;6.014;2022-08-07T04:36:56;2.58;;;1.02;;
23117;SDS011;11728;50.624;6.014;2022-08-07T04:42:00;1.92;;;1.00;;
23117;SDS011;11728;50.624;6.014;2022-08-07T04:47:04;4.05;;;1.00;;
23117;SDS011;11728;50.624;6.014;2022-08-07T05:08:25;1.15;;;0.63;;
23117;SDS011;11728;50.624;6.014;2022-08-07T05:13:34;1.77;;;0.90;;
23117;SDS011;11728;50.624;6.014;2022-08-07T05:18:39;1.73;;;0.90;;
23117;SDS011;11728;50.624;6.014;2022-08-07T05:24:00;1.63;;;0.60;;
23117;SDS011;11728;50.624;6.014;2022-08-07T05:29:05;1.73;;;0.68;;
23117;SDS011;11728;50.624;6.014;2022-08-07T05:34:09;1.67;;;0.65;;
23117;SDS011;11728;50.624;6.014;2022-08-07T05:39:13;2.72;;;0.80;;
23117;SDS011;11728;50.624;6.014;2022-08-07T05:44:17;2.92;;;0.80;;
23117;SDS011;11728;50.624;6.014;2022-08-07T05:49:20;1.55;;;0.60;;
23117;SDS011;11728;50.624;6.014;2022-08-07T05:54:23;3.75;;;0.98;;
23117;SDS011;11728;50.624;6.014;2022-08-07T05:59:24;1.33;;;0.65;;
23117;SDS011;11728;50.624;6.014;2022-08-07T06:04:36;2.67;;;0.60;;
23117;SDS011;11728;50.624;6.014;2022-08-07T06:09:39;2.08;;;0.85;;
23117;SDS011;11728;50.624;6.014;2022-08-07T06:14:40;2.55;;;0.65;;
23117;SDS011;11728;50.624;6.014;2022-08-07T06:19:42;1.77;;;0.60;;
23117;SDS011;11728;50.624;6.014;2022-08-07T06:24:43;3.22;;;0.65;;
23117;SDS011;11728;50.624;6.014;2022-08-07T06:29:44;1.63;;;0.60;;
23117;SDS011;11728;50.624;6.014;2022-08-07T06:34:45;1.65;;;0.60;;
23117;SDS011;11728;50.624;6.014;2022-08-07T06:39:46;3.20;;;0.70;;
23117;SDS011;11728;50.624;6.014;2022-08-07T06:44:48;1.77;;;0.80;;
23117;SDS011;11728;50.624;6.014;2022-08-07T06:49:51;1.35;;;0.75;;
23117;SDS011;11728;50.624;6.014;2022-08-07T06:54:53;3.47;;;0.75;;
23117;SDS011;11728;50.624;6.014;2022-08-07T06:59:55;1.33;;;0.60;;
23117;SDS011;11728;50.624;6.014;2022-08-07T07:04:58;3.70;;;1.00;;
23117;SDS011;11728;50.624;6.014;2022-08-07T07:09:59;3.05;;;0.80;;
23117;SDS011;11728;50.624;6.014;2022-08-07T07:15:02;1.45;;;0.75;;
23117;SDS011;11728;50.624;6.014;2022-08-07T07:20:12;3.35;;;0.68;;
23117;SDS011;11728;50.624;6.014;2022-08-07T07:25:18;3.47;;;0.90;;
23117;SDS011;11728;50.624;6.014;2022-08-07T07:30:21;4.00;;;0.80;;
23117;SDS011;11728;50.624;6.014;2022-08-07T07:35:26;2.03;;;0.70;;
23117;SDS011;11728;50.624;6.014;2022-08-07T07:40:29;3.25;;;0.68;;
23117;SDS011;11728;50.624;6.014;2022-08-07T07:45:31;6.72;;;0.60;;
23117;SDS011;11728;50.624;6.014;2022-08-07T07:50:31;1.80;;;0.65;;
23117;SDS011;11728;50.624;6.014;2022-08-07T07:55:32;1.58;;;0.40;;
23117;SDS011;11728;50.624;6.014;2022-08-07T08:00:33;1.17;;;0.43;;
23117;SDS011;11728;50.624;6.014;2022-08-07T08:05:35;1.42;;;0.40;;
23117;SDS011;11728;50.624;6.014;2022-08-07T08:10:38;1.10;;;0.40;;
23117;SDS011;11728;50.624;6.014;2022-08-07T08:15:39;1.48;;;0.30;;
23117;SDS011;11728;50.624;6.014;2022-08-07T08:20:41;0.75;;;0.32;;
23117;SDS011;11728;50.624;6.014;2022-08-07T08:25:44;1.75;;;0.30;;
23117;SDS011;11728;50.624;6.014;2022-08-07T08:31:06;1.80;;;0.50;;
23117;SDS011;11728;50.624;6.014;2022-08-07T08:36:09;1.98;;;0.55;;
23117;SDS011;11728;50.624;6.014;2022-08-07T08:41:16;1.80;;;0.20;;
23117;SDS011;11728;50.624;6.014;2022-08-07T08:57:00;1.75;;;0.45;;
23117;SDS011;11728;50.624;6.014;2022-08-07T09:02:12;4.47;;;0.55;;
23117;SDS011;11728;50.624;6.014;2022-08-07T09:13:17;1.17;;;0.40;;
23117;SDS011;11728;50.624;6.014;2022-08-07T09:18:51;2.60;;;0.50;;
23117;SDS011;11728;50.624;6.014;2022-08-07T09:34:30;1.52;;;0.40;;
23117;SDS011;11728;50.624;6.014;2022-08-07T10:28:24;3.88;;;0.60;;
23117;SDS011;11728;50.624;6.014;2022-08-07T10:33:52;1.75;;;0.50;;
23117;SDS011;11728;50.624;6.014;2022-08-07T10:44:32;1.05;;;0.30;;
23117;SDS011;11728;50.624;6.014;2022-08-07T10:50:02;2.25;;;0.68;;
23117;SDS011;11728;50.624;6.014;2022-08-07T11:00:48;5.00;;;0.55;;
23117;SDS011;11728;50.624;6.014;2022-08-07T11:11:19;1.65;;;0.55;;
23117;SDS011;11728;50.624;6.014;2022-08-07T11:16:26;2.28;;;0.50;;
23117;SDS011;11728;50.624;6.014;2022-08-07T11:32:22;1.33;;;0.50;;
23117;SDS011;11728;50.624;6.014;2022-08-07T12:09:57;2.10;;;0.52;;
23117;SDS011;11728;50.624;6.014;2022-08-07T12:15:22;1.95;;;0.68;;
23117;SDS011;11728;50.624;6.014;2022-08-07T12:31:58;1.40;;;0.60;;
23117;SDS011;11728;50.624;6.014;2022-08-07T12:37:06;1.30;;;0.60;;
23117;SDS011;11728;50.624;6.014;2022-08-07T12:42:08;2.20;;;0.70;;
23117;SDS011;11728;50.624;6.014;2022-08-07T12:47:31;1.67;;;0.68;;
23117;SDS011;11728;50.624;6.014;2022-08-07T12:57:34;3.47;;;0.53;;
23117;SDS011;11728;50.624;6.014;2022-08-07T13:02:56;1.45;;;0.70;;
23117;SDS011;11728;50.624;6.014;2022-08-07T13:24:01;2.03;;;0.40;;
23117;SDS011;11728;50.624;6.014;2022-08-07T13:34:25;2.30;;;0.60;;
23117;SDS011;11728;50.624;6.014;2022-08-07T13:45:04;3.60;;;0.50;;
23117;SDS011;11728;50.624;6.014;2022-08-07T13:50:09;1.42;;;0.40;;
23117;SDS011;11728;50.624;6.014;2022-08-07T13:55:17;2.72;;;0.50;;
23117;SDS011;11728;50.624;6.014;2022-08-07T14:00:19;1.55;;;0.40;;
23117;SDS011;11728;50.624;6.014;2022-08-07T14:05:21;3.13;;;0.50;;
23117;SDS011;11728;50.624;6.014;2022-08-07T14:10:23;1.58;;;0.40;;
23117;SDS011;11728;50.624;6.014;2022-08-07T14:20:37;2.10;;;0.50;;
23117;SDS011;11728;50.624;6.014;2022-08-07T14:25:42;1.55;;;0.40;;
23117;SDS011;11728;50.624;6.014;2022-08-07T14:30:48;0.88;;;0.30;;
23117;SDS011;11728;50.624;6.014;2022-08-07T14:35:56;0.82;;;0.22;;
23117;SDS011;11728;50.624;6.014;2022-08-07T14:46:00;3.38;;;0.55;;
23117;SDS011;11728;50.624;6.014;2022-08-07T14:51:11;2.05;;;0.50;;
23117;SDS011;11728;50.624;6.014;2022-08-07T14:56:19;1.58;;;0.50;;
23117;SDS011;11728;50.624;6.014;2022-08-07T15:01:26;0.80;;;0.30;;
23117;SDS011;11728;50.624;6.014;2022-08-07T15:06:31;1.10;;;0.40;;
23117;SDS011;11728;50.624;6.014;2022-08-07T15:11:36;1.77;;;0.45;;
23117;SDS011;11728;50.624;6.014;2022-08-07T15:16:43;2.08;;;0.60;;
23117;SDS011;11728;50.624;6.014;2022-08-07T15:21:48;2.97;;;0.57;;
23117;SDS011;11728;50.624;6.014;2022-08-07T15:32:18;1.58;;;0.47;;
23117;SDS011;11728;50.624;6.014;2022-08-07T15:37:21;2.30;;;0.60;;
23117;SDS011;11728;50.624;6.014;2022-08-07T15:47:43;1.00;;;0.45;;
23117;SDS011;11728;50.624;6.014;2022-08-07T15:52:50;1.52;;;0.80;;
23117;SDS011;11728;50.624;6.014;2022-08-07T15:57:51;6.40;;;1.48;;
23117;SDS011;11728;50.624;6.014;2022-08-07T16:02:53;2.72;;;0.60;;
23117;SDS011;11728;50.624;6.014;2022-08-07T16:08:01;3.05;;;0.70;;
23117;SDS011;11728;50.624;6.014;2022-08-07T16:33:45;3.15;;;1.02;;
23117;SDS011;11728;50.624;6.014;2022-08-07T16:44:30;4.20;;;1.10;;
23117;SDS011;11728;50.624;6.014;2022-08-07T16:54:57;2.25;;;1.02;;
23117;SDS011;11728;50.624;6.014;2022-08-07T17:10:43;2.78;;;1.10;;
23117;SDS011;11728;50.624;6.014;2022-08-07T17:16:08;2.35;;;1.02;;
23117;SDS011;11728;50.624;6.014;2022-08-07T17:21:29;3.45;;;1.00;;
23117;SDS011;11728;50.624;6.014;2022-08-07T17:38:02;2.88;;;0.80;;
23117;SDS011;11728;50.624;6.014;2022-08-07T17:43:09;3.22;;;1.60;;
23117;SDS011;11728;50.624;6.014;2022-08-07T17:48:48;2.78;;;1.27;;
23117;SDS011;11728;50.624;6.014;2022-08-07T17:54:05;3.20;;;1.60;;
23117;SDS011;11728;50.624;6.014;2022-08-07T17:59:22;2.70;;;0.90;;
23117;SDS011;11728;50.624;6.014;2022-08-07T18:09:43;3.50;;;1.00;;
23117;SDS011;11728;50.624;6.014;2022-08-07T18:15:08;2.95;;;1.08;;
23117;SDS011;11728;50.624;6.014;2022-08-07T18:20:18;4.25;;;0.90;;
23117;SDS011;11728;50.624;6.014;2022-08-07T18:25:26;3.38;;;1.10;;
23117;SDS011;11728;50.624;6.014;2022-08-07T18:30:33;8.15;;;1.00;;
23117;SDS011;11728;50.624;6.014;2022-08-07T18:35:52;2.50;;;1.10;;
23117;SDS011;11728;50.624;6.014;2022-08-07T18:46:16;2.28;;;1.20;;
23117;SDS011;11728;50.624;6.014;2022-08-07T18:56:50;4.13;;;1.40;;
23117;SDS011;11728;50.624;6.014;2022-08-07T19:01:57;2.10;;;1.00;;
23117;SDS011;11728;50.624;6.014;2022-08-07T19:12:42;4.80;;;1.52;;
23117;SDS011;11728;50.624;6.014;2022-08-07T19:28:51;5.53;;;1.37;;
23117;SDS011;11728;50.624;6.014;2022-08-07T19:33:59;3.88;;;1.55;;
23117;SDS011;11728;50.624;6.014;2022-08-07T19:39:04;4.78;;;1.70;;
23117;SDS011;11728;50.624;6.014;2022-08-07T19:44:07;2.20;;;1.35;;
23117;SDS011;11728;50.624;6.014;2022-08-07T19:49:11;2.70;;;1.23;;
23117;SDS011;11728;50.624;6.014;2022-08-07T19:54:16;3.25;;;1.40;;
23117;SDS011;11728;50.624;6.014;2022-08-07T19:59:21;3.78;;;1.70;;
23117;SDS011;11728;50.624;6.014;2022-08-07T20:04:31;5.20;;;1.90;;
23117;SDS011;11728;50.624;6.014;2022-08-07T20:09:41;4.72;;;1.80;;
23117;SDS011;11728;50.624;6.014;2022-08-07T20:14:44;4.22;;;2.00;;
23117;SDS011;11728;50.624;6.014;2022-08-07T20:19:47;2.63;;;1.35;;
23117;SDS011;11728;50.624;6.014;2022-08-07T20:24:51;6.80;;;1.55;;
23117;SDS011;11728;50.624;6.014;2022-08-07T20:29:56;3.20;;;1.30;;
23117;SDS011;11728;50.624;6.014;2022-08-07T20:35:05;3.78;;;1.30;;
23117;SDS011;11728;50.624;6.014;2022-08-07T20:40:09;3.80;;;1.40;;
23117;SDS011;11728;50.624;6.014;2022-08-07T20:45:12;8.02;;;4.10;;
23117;SDS011;11728;50.624;6.014;2022-08-07T20:50:18;3.20;;;1.35;;
23117;SDS011;11728;50.624;6.014;2022-08-07T20:55:21;2.20;;;1.10;;
23117;SDS011;11728;50.624;6.014;2022-08-07T21:00:22;3.97;;;1.20;;
23117;SDS011;11728;50.624;6.014;2022-08-07T21:05:40;4.00;;;1.42;;
23117;SDS011;11728;50.624;6.014;2022-08-07T21:10:47;4.72;;;1.30;;
23117;SDS011;11728;50.624;6.014;2022-08-07T21:15:50;4.03;;;1.50;;
23117;SDS011;11728;50.624;6.014;2022-08-07T21:20:55;2.85;;;1.20;;
23117;SDS011;11728;50.624;6.014;2022-08-07T21:26:06;2.53;;;1.30;;
23117;SDS011;11728;50.624;6.014;2022-08-07T21:31:40;2.15;;;1.30;;
23117;SDS011;11728;50.624;6.014;2022-08-07T21:47:09;3.30;;;1.52;;
23117;SDS011;11728;50.624;6.014;2022-08-07T22:08:22;4.38;;;1.50;;
23117;SDS011;11728;50.624;6.014;2022-08-07T22:13:29;6.10;;;1.55;;
23117;SDS011;11728;50.624;6.014;2022-08-07T22:24:03;3.70;;;1.58;;
23117;SDS011;11728;50.624;6.014;2022-08-07T22:39:50;2.65;;;1.40;;
23117;SDS011;11728;50.624;6.014;2022-08-07T22:44:56;3.53;;;1.60;;
23117;SDS011;11728;50.624;6.014;2022-08-07T23:01:02;2.75;;;1.40;;
23117;SDS011;11728;50.624;6.014;2022-08-07T23:11:37;5.15;;;1.80;;
23117;SDS011;11728;50.624;6.014;2022-08-07T23:16:48;3.10;;;1.73;;
23117;SDS011;11728;50.624;6.014;2022-08-07T23:43:55;4.22;;;1.88;;
